Time;durP1;ratioP1;P1;durP2;ratioP2;P2;SDS_P1;SDS_P2;PMS_P1;PMS_P2;Temp;Humidity;BMP_temperature;BMP_pressure;BME280_temperature;BME280_humidity;BME280_pressure;Samples;Min_cycle;Max_cycle;Signal;HPM_P1;HPM_P2
2023/12/21 00:00:46;;;;;;;65.15;38.92;;;;;;;2.87;81.33;99243.22;5017863;28;20503;-84
2023/12/21 00:03:32;;;;;;;74.95;42.90;;;;;;;2.88;81.91;99259.78;5021216;28;20061;-84
2023/12/21 00:06:17;;;;;;;54.10;31.77;;;;;;;2.84;81.72;99256.72;5028740;28;20052;-84
2023/12/21 00:09:06;;;;;;;64.15;35.17;;;;;;;2.83;82.04;99254.28;5036790;28;20068;-88
2023/12/21 00:11:51;;;;;;;47.13;26.23;;;;;;;2.87;82.08;99251.09;5015551;28;20387;-89
2023/12/21 00:14:37;;;;;;;86.70;36.88;;;;;;;2.97;81.38;99258.72;5022333;28;20069;-89
2023/12/21 00:17:22;;;;;;;90.30;38.50;;;;;;;3.09;81.15;99249.41;5036488;28;20048;-82
2023/12/21 00:20:08;;;;;;;112.55;46.28;;;;;;;3.06;80.88;99257.66;5028645;28;20045;-88
2023/12/21 00:22:54;;;;;;;105.28;43.92;;;;;;;3.01;81.59;99257.38;5021702;28;20411;-85
2023/12/21 00:25:39;;;;;;;68.40;34.55;;;;;;;2.99;82.22;99260.19;5014505;28;20038;-83
2023/12/21 00:28:47;;;;;;;68.82;34.10;;;;;;;2.94;81.31;99256.44;5015073;28;20407;-85
2023/12/21 00:31:51;;;;;;;63.97;32.65;;;;;;;2.93;81.93;99249.59;5018636;28;20052;-83
2023/12/21 00:34:37;;;;;;;75.25;36.33;;;;;;;2.98;81.08;99239.38;5014350;28;20427;-89
2023/12/21 00:37:22;;;;;;;110.35;47.75;;;;;;;3.00;80.96;99247.84;5036314;28;20068;-83
2023/12/21 00:40:08;;;;;;;85.68;40.83;;;;;;;2.89;81.37;99249.13;5021746;28;20055;-87
2023/12/21 00:42:53;;;;;;;69.30;33.70;;;;;;;2.83;81.63;99254.28;5028485;28;20068;-85
2023/12/21 00:45:39;;;;;;;67.38;34.83;;;;;;;2.73;82.14;99257.97;5012643;28;20060;-88
2023/12/21 00:48:25;;;;;;;68.35;34.42;;;;;;;2.62;82.57;99253.16;5008468;28;20056;-86
2023/12/21 00:51:11;;;;;;;70.82;34.80;;;;;;;2.56;83.32;99245.97;5016405;28;20399;-86
2023/12/21 00:54:05;;;;;;;67.10;34.65;;;;;;;2.52;83.19;99249.97;4990628;28;20044;-83
2023/12/21 00:56:51;;;;;;;65.80;34.75;;;;;;;2.44;83.41;99257.88;4987788;28;20060;-83
2023/12/21 00:59:36;;;;;;;68.45;34.78;;;;;;;2.36;83.24;99258.78;4994234;28;20118;-82
2023/12/21 01:02:22;;;;;;;66.93;33.97;;;;;;;2.33;83.79;99255.69;5001655;28;20057;-83
2023/12/21 01:05:13;;;;;;;61.40;32.17;;;;;;;2.25;84.11;99267.03;5016312;28;20068;-87
2023/12/21 01:07:59;;;;;;;55.92;29.10;;;;;;;2.19;84.43;99270.34;4995547;28;20045;-82
2023/12/21 01:10:44;;;;;;;60.45;29.98;;;;;;;2.08;84.69;99261.09;4980581;28;20503;-86
2023/12/21 01:13:32;;;;;;;54.03;29.77;;;;;;;2.05;84.54;99258.81;4993935;28;20507;-89
2023/12/21 01:16:26;;;;;;;55.22;28.63;;;;;;;2.10;84.60;99264.38;4981602;28;20050;-83
2023/12/21 01:19:11;;;;;;;60.92;29.88;;;;;;;2.15;84.31;99263.84;4994161;28;20392;-82
2023/12/21 01:21:57;;;;;;;61.15;32.67;;;;;;;2.06;84.64;99263.06;5007899;28;20052;-82
2023/12/21 01:24:57;;;;;;;67.47;34.63;;;;;;;2.09;85.23;99262.72;4993922;28;20049;-83
2023/12/21 01:27:47;;;;;;;68.13;34.22;;;;;;;2.07;84.31;99256.84;4994359;28;20053;-87
2023/12/21 01:30:32;;;;;;;63.97;32.35;;;;;;;2.11;85.15;99252.09;5008461;28;20068;-82
2023/12/21 01:33:18;;;;;;;62.25;31.58;;;;;;;2.24;84.27;99265.41;4987367;28;20049;-82
2023/12/21 01:36:09;;;;;;;58.90;31.65;;;;;;;2.14;83.93;99265.66;5007198;28;20048;-87
2023/12/21 01:38:58;;;;;;;65.80;32.83;;;;;;;2.10;84.10;99269.63;4988269;28;20041;-86
2023/12/21 01:41:44;;;;;;;54.83;29.23;;;;;;;2.10;84.29;99261.75;5015614;28;20057;-88
2023/12/21 01:44:29;;;;;;;56.85;28.50;;;;;;;2.11;84.65;99271.25;5015736;28;20411;-86
2023/12/21 01:47:15;;;;;;;48.10;26.52;;;;;;;2.21;84.24;99268.38;5014237;28;20068;-83
2023/12/21 01:50:01;;;;;;;57.05;30.58;;;;;;;2.19;84.30;99271.16;5035023;28;20402;-82
2023/12/21 01:52:48;;;;;;;63.28;31.40;;;;;;;2.20;84.72;99264.97;5020593;28;20060;-83
2023/12/21 01:55:33;;;;;;;59.55;31.15;;;;;;;2.17;84.80;99257.44;5037401;28;20064;-82
2023/12/21 01:58:19;;;;;;;62.17;31.08;;;;;;;2.16;84.53;99254.97;5037967;28;20064;-83
2023/12/21 02:01:05;;;;;;;69.78;33.70;;;;;;;2.16;84.49;99247.13;5037678;28;20052;-82
2023/12/21 02:03:50;;;;;;;78.72;38.45;;;;;;;2.14;84.66;99243.88;5022956;28;20060;-84
2023/12/21 02:06:36;;;;;;;72.45;33.15;;;;;;;2.08;84.82;99250.63;5038375;28;20048;-83
2023/12/21 02:09:22;;;;;;;53.05;28.85;;;;;;;2.06;85.37;99242.91;5037875;28;20048;-82
2023/12/21 02:12:07;;;;;;;58.33;29.30;;;;;;;2.01;85.33;99239.22;5040577;28;20411;-86
2023/12/21 02:14:54;;;;;;;68.68;32.40;;;;;;;2.00;85.00;99248.84;5036606;28;20159;-83
2023/12/21 02:17:40;;;;;;;78.65;35.53;;;;;;;1.98;85.35;99240.38;5034536;28;20387;-86
2023/12/21 02:20:26;;;;;;;69.63;32.95;;;;;;;1.96;85.18;99238.91;5035217;28;20057;-86
2023/12/21 02:23:12;;;;;;;79.80;35.10;;;;;;;1.95;85.44;99245.13;5019583;28;20049;-83
2023/12/21 02:25:57;;;;;;;70.78;31.40;;;;;;;1.92;85.08;99235.81;5018823;28;20061;-83
2023/12/21 02:28:43;;;;;;;64.82;32.08;;;;;;;1.90;85.84;99229.09;5012558;28;20056;-86
2023/12/21 02:31:28;;;;;;;62.20;29.77;;;;;;;1.87;85.12;99232.06;5034088;28;20060;-84
2023/12/21 02:34:13;;;;;;;61.50;28.48;;;;;;;1.81;85.73;99226.53;5019908;28;20052;-87
2023/12/21 02:36:58;;;;;;;60.67;29.80;;;;;;;1.79;86.83;99231.16;5034168;28;20502;-86
2023/12/21 02:39:44;;;;;;;59.72;31.20;;;;;;;1.67;86.29;99226.47;5034632;28;20044;-83
2023/12/21 02:42:30;;;;;;;89.53;40.40;;;;;;;1.69;86.85;99234.94;5034460;28;20052;-83
2023/12/21 02:45:15;;;;;;;87.13;41.17;;;;;;;1.64;86.31;99222.38;5026011;28;20095;-86
2023/12/21 02:48:01;;;;;;;88.28;40.70;;;;;;;1.65;87.01;99217.94;5034063;28;20117;-83
2023/12/21 02:50:46;;;;;;;85.43;40.08;;;;;;;1.62;86.44;99221.72;5033802;28;20048;-86
2023/12/21 02:53:32;;;;;;;86.65;41.47;;;;;;;1.60;86.76;99216.69;5034276;28;20068;-82
2023/12/21 02:56:17;;;;;;;89.65;41.70;;;;;;;1.52;86.92;99208.84;5033849;28;20052;-82
2023/12/21 02:59:03;;;;;;;84.30;38.92;;;;;;;1.49;87.59;99201.34;5033986;28;20052;-82
2023/12/21 03:01:49;;;;;;;81.07;39.78;;;;;;;1.45;86.88;99202.66;5033950;28;20052;-86
2023/12/21 03:04:34;;;;;;;80.43;38.95;;;;;;;1.39;87.20;99198.94;5034102;28;20044;-82
2023/12/21 03:07:20;;;;;;;74.03;36.88;;;;;;;1.38;87.24;99194.69;5019092;28;20052;-82
2023/12/21 03:10:06;;;;;;;81.95;38.17;;;;;;;1.34;87.46;99190.75;5033858;28;20116;-83
2023/12/21 03:12:51;;;;;;;77.65;37.42;;;;;;;1.30;87.60;99189.47;5033946;28;20395;-83
2023/12/21 03:15:36;;;;;;;72.88;36.53;;;;;;;1.30;87.64;99184.25;5020593;28;20120;-86
2023/12/21 03:18:21;;;;;;;73.55;34.38;;;;;;;1.26;88.14;99180.34;5035383;28;20068;-86
2023/12/21 03:21:07;;;;;;;59.42;29.25;;;;;;;1.23;88.15;99174.63;5053210;28;20060;-84
2023/12/21 03:23:52;;;;;;;41.55;21.63;;;;;;;1.23;88.35;99175.44;5057552;28;20032;-82
2023/12/21 03:26:38;;;;;;;41.70;21.00;;;;;;;1.20;87.92;99167.94;5043300;28;20035;-85
2023/12/21 03:29:24;;;;;;;40.85;20.35;;;;;;;1.20;88.22;99172.34;5019915;28;20040;-82
2023/12/21 03:32:09;;;;;;;45.05;22.27;;;;;;;1.21;88.25;99166.94;5034102;28;20053;-83
2023/12/21 03:34:56;;;;;;;46.03;21.17;;;;;;;1.23;88.05;99162.34;5033991;28;20060;-86
2023/12/21 03:37:41;;;;;;;36.70;18.13;;;;;;;1.19;88.62;99161.03;5028609;28;20510;-83
2023/12/21 03:40:27;;;;;;;33.88;17.60;;;;;;;1.25;88.09;99155.13;5037579;28;20121;-82
2023/12/21 03:43:12;;;;;;;34.35;17.48;;;;;;;1.26;88.06;99159.41;5038074;28;20068;-86
2023/12/21 03:45:58;;;;;;;39.15;19.48;;;;;;;1.32;87.94;99155.28;5019469;28;20404;-86
2023/12/21 03:48:43;;;;;;;35.40;19.65;;;;;;;1.34;87.36;99155.91;5017428;28;20447;-86
2023/12/21 03:51:28;;;;;;;38.13;18.60;;;;;;;1.39;87.16;99156.22;5017367;28;20061;-86
2023/12/21 03:54:14;;;;;;;34.20;16.80;;;;;;;1.41;87.54;99154.25;5002808;28;20053;-83
2023/12/21 03:57:00;;;;;;;29.38;15.20;;;;;;;1.46;87.16;99158.97;5009356;28;20045;-83
2023/12/21 03:59:45;;;;;;;29.38;15.80;;;;;;;1.51;87.70;99159.28;5017802;28;20072;-85
2023/12/21 04:02:31;;;;;;;40.55;20.15;;;;;;;1.48;87.46;99152.56;5017405;28;20045;-82
2023/12/21 04:05:16;;;;;;;32.13;17.02;;;;;;;1.49;86.80;99161.22;5002523;28;20045;-86
2023/12/21 04:08:01;;;;;;;33.80;16.95;;;;;;;1.53;87.38;99157.28;5017335;28;20044;-81
2023/12/21 04:10:49;;;;;;;29.67;16.42;;;;;;;1.55;87.52;99155.31;5017279;28;20048;-80
2023/12/21 04:13:34;;;;;;;38.85;17.23;;;;;;;1.54;87.12;99153.69;5017481;28;20045;-84
2023/12/21 04:16:19;;;;;;;47.05;24.20;;;;;;;1.54;87.14;99161.53;5017192;28;20045;-83
2023/12/21 04:19:06;;;;;;;49.38;24.20;;;;;;;1.44;87.03;99164.34;5017282;28;20404;-82
2023/12/21 04:21:52;;;;;;;53.67;27.23;;;;;;;1.44;87.39;99164.34;5017339;28;20117;-82
2023/12/21 04:24:37;;;;;;;57.83;26.50;;;;;;;1.44;87.72;99166.16;5016855;28;20068;-85
2023/12/21 04:27:23;;;;;;;53.78;25.60;;;;;;;1.42;87.53;99162.91;5016996;28;20395;-82
2023/12/21 04:30:09;;;;;;;59.83;26.15;;;;;;;1.41;88.16;99169.97;5016938;28;20396;-85
2023/12/21 04:32:55;;;;;;;58.88;26.40;;;;;;;1.37;87.86;99169.47;5016345;28;20056;-81
2023/12/21 04:35:44;;;;;;;55.70;28.35;;;;;;;1.33;87.78;99170.00;5016795;28;20056;-86
2023/12/21 04:38:29;;;;;;;50.22;27.23;;;;;;;1.30;88.32;99168.53;5017136;28;20065;-82
2023/12/21 04:41:15;;;;;;;49.33;25.42;;;;;;;1.30;88.22;99170.34;5016476;28;20052;-83
2023/12/21 04:44:00;;;;;;;49.83;24.55;;;;;;;1.26;88.92;99175.09;5016688;28;20068;-82
2023/12/21 04:46:48;;;;;;;50.63;25.98;;;;;;;1.24;88.84;99179.69;5011825;28;20060;-82
2023/12/21 04:49:34;;;;;;;59.28;27.25;;;;;;;1.24;89.56;99186.72;5020682;28;20407;-82
2023/12/21 04:52:19;;;;;;;50.28;24.85;;;;;;;1.21;88.76;99190.50;5021046;28;20056;-82
2023/12/21 04:55:05;;;;;;;60.33;27.92;;;;;;;1.19;89.32;99182.00;5035245;28;20064;-86
2023/12/21 04:57:50;;;;;;;47.25;25.58;;;;;;;1.19;88.82;99184.59;5036290;28;20052;-86
2023/12/21 05:00:35;;;;;;;50.30;26.40;;;;;;;1.21;88.92;99182.66;5021319;28;20056;-83
2023/12/21 05:03:20;;;;;;;53.00;26.10;;;;;;;1.20;89.49;99180.22;5036164;28;20052;-82
2023/12/21 05:06:06;;;;;;;55.00;29.60;;;;;;;1.22;89.77;99191.31;5036381;28;20052;-86
2023/12/21 05:08:52;;;;;;;54.40;29.23;;;;;;;1.21;89.77;99193.13;5021263;28;20052;-82
2023/12/21 05:11:37;;;;;;;58.33;29.77;;;;;;;1.20;89.13;99196.72;5035979;28;20509;-86
2023/12/21 05:14:23;;;;;;;56.25;29.40;;;;;;;1.24;89.51;99198.00;5035719;28;20403;-82
2023/12/21 05:17:08;;;;;;;49.15;26.77;;;;;;;1.26;89.42;99193.44;5035530;28;20069;-82
2023/12/21 05:19:54;;;;;;;52.60;28.77;;;;;;;1.27;89.00;99196.84;5035588;28;20533;-83
2023/12/21 05:22:41;;;;;;;52.33;29.15;;;;;;;1.29;88.81;99198.31;5035421;28;20056;-82
2023/12/21 05:25:27;;;;;;;56.35;30.63;;;;;;;1.31;89.18;99195.53;5021101;28;20048;-86
2023/12/21 05:28:13;;;;;;;49.67;27.35;;;;;;;1.33;89.27;99191.75;5035752;28;20507;-82
2023/12/21 05:30:59;;;;;;;57.10;29.85;;;;;;;1.33;88.46;99189.13;5035398;28;20048;-82
2023/12/21 05:33:45;;;;;;;75.68;37.25;;;;;;;1.34;88.66;99190.75;5035857;28;20506;-86
2023/12/21 05:36:30;;;;;;;70.20;35.85;;;;;;;1.33;88.69;99180.47;5035412;28;20407;-81
2023/12/21 05:39:16;;;;;;;82.72;38.72;;;;;;;1.35;88.99;99184.56;5034952;28;20049;-85
2023/12/21 05:42:02;;;;;;;87.70;39.33;;;;;;;1.31;89.21;99180.63;5034972;28;20083;-81
2023/12/21 05:44:47;;;;;;;83.72;38.85;;;;;;;1.28;89.08;99182.78;5035235;28;20533;-85
2023/12/21 05:47:33;;;;;;;78.35;36.80;;;;;;;1.28;88.41;99185.41;5034994;28;20433;-81
2023/12/21 05:50:18;;;;;;;77.78;38.58;;;;;;;1.30;88.78;99188.66;5035048;28;20513;-86
2023/12/21 05:53:04;;;;;;;92.47;39.90;;;;;;;1.33;89.08;99191.75;5035081;28;20052;-85
2023/12/21 05:55:50;;;;;;;98.32;40.35;;;;;;;1.29;88.67;99182.63;5035016;28;20053;-88
2023/12/21 05:58:35;;;;;;;105.10;46.95;;;;;;;1.35;88.47;99181.94;5012891;28;20502;-82
2023/12/21 06:01:20;;;;;;;76.88;37.58;;;;;;;1.43;88.57;99185.50;5019211;28;20052;-82
2023/12/21 06:04:06;;;;;;;65.68;31.92;;;;;;;1.48;88.18;99178.75;5035121;28;20131;-87
2023/12/21 06:06:51;;;;;;;58.30;30.88;;;;;;;1.49;87.83;99177.75;5020333;28;20044;-81
2023/12/21 06:09:36;;;;;;;61.25;32.22;;;;;;;1.49;88.32;99188.22;5034802;28;20052;-81
2023/12/21 06:12:22;;;;;;;101.00;45.38;;;;;;;1.47;88.34;99178.91;5034671;28;20044;-81
2023/12/21 06:15:08;;;;;;;92.03;43.03;;;;;;;1.44;88.05;99182.69;5035027;28;20053;-81
2023/12/21 06:17:53;;;;;;;90.25;43.83;;;;;;;1.39;88.55;99196.31;5019656;28;20064;-85
2023/12/21 06:20:39;;;;;;;120.88;50.88;;;;;;;1.36;88.59;99193.22;5035931;28;20052;-81
2023/12/21 06:23:24;;;;;;;108.63;51.58;;;;;;;1.34;88.07;99195.19;5018835;28;20514;-85
2023/12/21 06:26:12;;;;;;;126.55;58.90;;;;;;;1.29;89.39;99182.63;5034312;28;20041;-81
2023/12/21 06:28:57;;;;;;;126.97;60.78;;;;;;;1.27;88.70;99183.78;5018926;28;20499;-81
2023/12/21 06:31:44;;;;;;;129.95;55.10;;;;;;;1.25;88.64;99181.31;5034335;28;20099;-81
2023/12/21 06:34:30;;;;;;;101.25;46.15;;;;;;;1.22;89.31;99192.13;5019554;28;20099;-81
2023/12/21 06:37:16;;;;;;;101.00;44.97;;;;;;;1.26;88.55;99197.84;5034500;28;20418;-81
2023/12/21 06:40:04;;;;;;;222.48;97.03;;;;;;;1.26;89.60;99184.75;5006045;28;20517;-81
2023/12/21 06:42:50;;;;;;;161.13;66.32;;;;;;;1.25;89.06;99189.16;5026123;28;20060;-86
2023/12/21 06:45:36;;;;;;;112.10;48.70;;;;;;;1.27;88.84;99181.97;5019341;28;20041;-85
2023/12/21 06:48:22;;;;;;;84.53;42.47;;;;;;;1.30;89.09;99186.84;5033235;28;20049;-85
2023/12/21 06:51:08;;;;;;;87.55;41.55;;;;;;;1.36;88.80;99182.75;5034211;28;20048;-81
2023/12/21 06:53:53;;;;;;;86.70;42.17;;;;;;;1.38;88.70;99189.44;5019781;28;20052;-86
2023/12/21 06:56:39;;;;;;;84.00;42.28;;;;;;;1.41;88.69;99185.69;5033804;28;20052;-86
2023/12/21 06:59:28;;;;;;;81.63;41.70;;;;;;;1.43;88.99;99182.88;5025828;28;20072;-82
2023/12/21 07:02:14;;;;;;;90.85;42.90;;;;;;;1.47;88.67;99184.97;5034109;28;20062;-82
2023/12/21 07:04:59;;;;;;;88.07;42.88;;;;;;;1.53;88.36;99188.69;5019638;28;20057;-86
2023/12/21 07:07:45;;;;;;;90.50;43.72;;;;;;;1.62;89.07;99182.44;5025601;28;20068;-86
2023/12/21 07:10:30;;;;;;;85.72;43.38;;;;;;;1.66;88.52;99181.13;5024808;28;20517;-86
2023/12/21 07:13:17;;;;;;;131.57;63.35;;;;;;;1.75;88.00;99187.09;5034045;28;20060;-86
2023/12/21 07:16:02;;;;;;;147.52;67.93;;;;;;;1.87;88.15;99185.72;5033903;28;20053;-86
2023/12/21 07:18:50;;;;;;;162.57;78.88;;;;;;;1.94;87.44;99180.59;5033813;28;20065;-86
2023/12/21 07:21:35;;;;;;;209.85;95.78;;;;;;;2.03;87.08;99195.25;5033505;28;20491;-81
2023/12/21 07:24:21;;;;;;;152.93;71.95;;;;;;;2.11;86.78;99199.66;5019255;28;20048;-86
2023/12/21 07:27:07;;;;;;;140.18;66.82;;;;;;;2.19;86.09;99195.13;5034174;28;20049;-86
2023/12/21 07:29:52;;;;;;;123.38;59.17;;;;;;;2.31;86.00;99195.53;5033643;28;20037;-82
2023/12/21 07:32:39;;;;;;;128.15;60.05;;;;;;;2.36;85.25;99189.78;5018900;28;20061;-82
2023/12/21 07:35:25;;;;;;;122.95;58.58;;;;;;;2.45;84.84;99184.28;5033462;28;20415;-80
2023/12/21 07:38:10;;;;;;;114.88;57.28;;;;;;;2.59;84.62;99189.72;5033713;28;20487;-87
2023/12/21 07:40:56;;;;;;;107.28;51.17;;;;;;;2.67;83.90;99179.16;5040704;28;20403;-82
2023/12/21 07:43:41;;;;;;;97.68;49.28;;;;;;;2.76;83.50;99186.75;5033570;28;20046;-82
2023/12/21 07:46:28;;;;;;;99.60;48.65;;;;;;;2.94;83.09;99182.94;5035131;28;20076;-86
2023/12/21 07:49:14;;;;;;;118.13;58.40;;;;;;;2.98;82.12;99185.03;5041494;28;20052;-87
2023/12/21 07:51:59;;;;;;;128.70;61.47;;;;;;;2.98;82.21;99195.53;5040526;28;20093;-86
2023/12/21 07:54:53;;;;;;;142.45;66.38;;;;;;;2.97;82.29;99183.41;5040281;28;20070;-86
2023/12/21 07:57:38;;;;;;;144.05;67.18;;;;;;;3.01;82.37;99182.06;5038488;28;20056;-86
2023/12/21 08:00:24;;;;;;;135.45;62.40;;;;;;;3.05;82.42;99174.63;5040140;28;20052;-82
2023/12/21 08:03:09;;;;;;;116.43;57.72;;;;;;;3.14;82.41;99168.28;5038262;28;20045;-88
2023/12/21 08:05:55;;;;;;;121.30;58.97;;;;;;;3.24;83.05;99171.44;5020338;28;20048;-88
2023/12/21 08:08:40;;;;;;;122.22;59.30;;;;;;;3.36;82.14;99168.34;5020852;28;20395;-84
2023/12/21 08:11:26;;;;;;;113.68;54.72;;;;;;;3.42;81.18;99167.59;5021285;28;20392;-82
2023/12/21 08:14:12;;;;;;;106.93;53.50;;;;;;;3.49;81.07;99160.59;5034490;28;20050;-86
2023/12/21 08:16:59;;;;;;;141.82;66.35;;;;;;;3.55;81.05;99170.38;5033386;28;20049;-83
2023/12/21 08:19:45;;;;;;;158.55;73.90;;;;;;;3.55;81.10;99167.75;5039849;28;20048;-86
2023/12/21 08:22:31;;;;;;;112.50;54.67;;;;;;;3.43;80.43;99164.78;5032939;28;20057;-86
2023/12/21 08:25:17;;;;;;;121.50;60.28;;;;;;;3.43;80.58;99166.59;5036866;28;20052;-85
2023/12/21 08:28:02;;;;;;;161.63;94.00;;;;;;;3.40;80.68;99162.53;5008153;28;20045;-83
2023/12/21 08:30:47;;;;;;;158.88;85.78;;;;;;;3.37;80.76;99159.47;5021971;28;20053;-87
2023/12/21 08:33:35;;;;;;;142.95;70.35;;;;;;;3.56;80.73;99156.22;5028828;28;20065;-88
2023/12/21 08:36:21;;;;;;;112.28;56.70;;;;;;;3.69;80.19;99156.38;5036212;28;20068;-87
2023/12/21 08:39:06;;;;;;;106.85;52.70;;;;;;;3.86;80.13;99158.78;5021173;28;20050;-83
2023/12/21 08:41:51;;;;;;;123.07;60.17;;;;;;;3.77;79.52;99138.88;5021469;28;20048;-87
2023/12/21 08:44:37;;;;;;;133.57;71.75;;;;;;;3.76;80.53;99145.09;5021785;28;20101;-82
2023/12/21 08:47:23;;;;;;;117.90;62.25;;;;;;;3.80;79.74;99138.50;5035206;28;20045;-78
2023/12/21 08:50:10;;;;;;;131.25;69.13;;;;;;;3.79;79.34;99134.22;5042515;28;20053;-78
2023/12/21 08:52:59;;;;;;;133.75;66.43;;;;;;;3.80;79.90;99125.34;5037758;28;20060;-76
2023/12/21 08:55:44;;;;;;;135.90;69.57;;;;;;;3.87;79.64;99123.59;5039812;28;20080;-75
2023/12/21 08:58:30;;;;;;;139.57;68.43;;;;;;;4.32;79.49;99110.97;5037610;28;20064;-77
2023/12/21 09:01:16;;;;;;;141.68;75.95;;;;;;;4.64;77.35;99107.75;5039045;28;20044;-77
2023/12/21 09:04:02;;;;;;;127.45;64.57;;;;;;;4.79;76.46;99096.28;5040051;28;20048;-77
2023/12/21 09:06:48;;;;;;;114.28;60.05;;;;;;;5.15;75.26;99097.88;5035299;28;20557;-79
2023/12/21 09:09:34;;;;;;;133.10;68.15;;;;;;;5.39;74.52;99093.84;5036063;28;20044;-78
2023/12/21 09:12:20;;;;;;;135.23;64.35;;;;;;;5.62;73.54;99088.25;5041001;28;20048;-80
2023/12/21 09:15:06;;;;;;;110.78;57.17;;;;;;;5.70;72.15;99090.69;5036020;28;20041;-76
2023/12/21 09:17:53;;;;;;;105.00;53.78;;;;;;;5.71;72.54;99087.03;5035373;28;20052;-78
2023/12/21 09:20:38;;;;;;;94.05;50.03;;;;;;;5.77;73.02;99079.13;5035412;28;20621;-78
2023/12/21 09:23:23;;;;;;;98.38;47.75;;;;;;;5.89;71.56;99067.97;5035788;28;20052;-81
2023/12/21 09:26:10;;;;;;;76.30;39.42;;;;;;;6.07;69.06;99062.91;5035889;28;20056;-80
2023/12/21 09:28:56;;;;;;;74.80;39.35;;;;;;;6.21;68.75;99051.34;5036284;28;20068;-81
2023/12/21 09:31:42;;;;;;;71.35;38.53;;;;;;;6.04;68.92;99039.59;5035701;28;20048;-81
2023/12/21 09:34:28;;;;;;;62.70;33.03;;;;;;;6.04;67.82;99034.31;5035447;28;20052;-81
2023/12/21 09:37:16;;;;;;;84.85;43.70;;;;;;;6.14;69.04;99010.16;5040761;28;20052;-79
2023/12/21 09:40:03;;;;;;;72.60;36.60;;;;;;;6.15;68.94;99006.50;5035537;28;20060;-77
2023/12/21 09:42:50;;;;;;;49.63;28.45;;;;;;;6.41;67.52;99006.44;5035446;28;20052;-77
2023/12/21 09:45:36;;;;;;;51.42;28.30;;;;;;;6.55;65.04;99003.72;5035698;28;20479;-79
2023/12/21 09:48:22;;;;;;;55.92;28.35;;;;;;;6.51;64.72;99002.53;5035496;28;20048;-76
2023/12/21 09:51:10;;;;;;;59.72;30.77;;;;;;;6.40;65.38;98988.97;5041860;28;20064;-77
2023/12/21 09:53:56;;;;;;;38.67;20.58;;;;;;;6.58;64.30;98992.75;5036975;28;20048;-79
2023/12/21 09:56:41;;;;;;;41.10;19.83;;;;;;;6.80;63.16;98977.44;5020218;28;20048;-80
2023/12/21 09:59:30;;;;;;;38.55;21.10;;;;;;;7.03;62.42;98971.63;5020314;28;20530;-79
2023/12/21 10:02:16;;;;;;;85.20;45.67;;;;;;;7.26;61.79;98969.22;5035107;28;20395;-77
2023/12/21 10:05:03;;;;;;;48.03;25.48;;;;;;;7.47;60.59;98970.72;5035532;28;20048;-79
2023/12/21 10:07:48;;;;;;;41.88;21.80;;;;;;;7.60;61.23;98970.59;5020616;28;20057;-78
2023/12/21 10:10:36;;;;;;;29.90;16.80;;;;;;;7.78;59.74;98961.09;5034832;28;20048;-78
2023/12/21 10:13:25;;;;;;;19.50;11.80;;;;;;;7.85;58.32;98956.53;5034821;28;20048;-80
2023/12/21 10:16:10;;;;;;;25.48;13.20;;;;;;;8.01;58.02;98955.16;5034487;28;20067;-80
2023/12/21 10:18:56;;;;;;;29.73;17.00;;;;;;;8.17;58.07;98964.38;5019413;28;20060;-80
2023/12/21 10:21:43;;;;;;;40.80;23.40;;;;;;;7.92;60.48;98959.91;5034693;28;20060;-78
2023/12/21 10:24:31;;;;;;;39.40;22.70;;;;;;;8.06;58.72;98957.97;5034772;28;20056;-79
2023/12/21 10:27:17;;;;;;;45.78;25.65;;;;;;;7.98;59.20;98939.72;5034927;28;20069;-79
2023/12/21 10:30:03;;;;;;;37.40;21.70;;;;;;;7.88;59.27;98921.72;5034967;28;20056;-78
2023/12/21 10:32:55;;;;;;;40.90;23.77;;;;;;;7.91;59.53;98928.41;5019558;28;20048;-83
2023/12/21 10:35:41;;;;;;;36.70;19.77;;;;;;;7.92;58.30;98924.72;5034195;28;20052;-79
2023/12/21 10:38:27;;;;;;;32.92;18.38;;;;;;;7.41;59.59;98919.50;5018988;28;20064;-78
2023/12/21 10:41:12;;;;;;;31.75;18.23;;;;;;;7.61;60.37;98918.50;5033987;28;20398;-79
2023/12/21 10:43:57;;;;;;;32.13;15.95;;;;;;;7.72;59.60;98904.56;5033465;28;20064;-79
2023/12/21 10:46:43;;;;;;;29.25;16.45;;;;;;;7.80;59.49;98901.66;5021515;28;20053;-84
2023/12/21 10:49:29;;;;;;;29.45;15.75;;;;;;;7.88;58.95;98900.53;5019183;28;20112;-78
2023/12/21 10:52:15;;;;;;;24.15;13.27;;;;;;;7.89;57.83;98908.25;5025423;28;20060;-83
2023/12/21 10:55:01;;;;;;;24.33;12.38;;;;;;;7.85;57.47;98909.72;5034000;28;20049;-83
2023/12/21 10:57:49;;;;;;;25.27;12.63;;;;;;;7.88;57.56;98897.91;5018847;28;20048;-82
2023/12/21 11:00:35;;;;;;;24.35;11.82;;;;;;;8.04;56.76;98891.22;5019437;28;20056;-82
2023/12/21 11:03:20;;;;;;;20.80;9.88;;;;;;;7.94;56.68;98886.44;5018820;28;20064;-79
2023/12/21 11:06:08;;;;;;;19.52;10.32;;;;;;;8.05;57.03;98890.16;5033432;28;20068;-82
2023/12/21 11:08:54;;;;;;;12.07;7.85;;;;;;;8.21;54.92;98880.81;5020249;28;20048;-78
2023/12/21 11:11:41;;;;;;;10.07;6.03;;;;;;;7.93;55.09;98878.69;5035287;28;20052;-78
2023/12/21 11:14:27;;;;;;;7.25;4.38;;;;;;;7.91;55.11;98872.84;5019728;28;20064;-75
2023/12/21 11:17:14;;;;;;;13.15;6.18;;;;;;;7.92;54.40;98869.97;5040345;28;20045;-81
2023/12/21 11:20:02;;;;;;;13.95;5.95;;;;;;;8.04;55.23;98854.97;5019691;28;20048;-74
2023/12/21 11:22:47;;;;;;;11.45;5.95;;;;;;;8.02;54.73;98854.41;5018950;28;20502;-82
2023/12/21 11:25:34;;;;;;;11.73;6.00;;;;;;;8.23;53.51;98837.22;5032975;28;20167;-78
2023/12/21 11:28:25;;;;;;;14.50;6.57;;;;;;;8.24;53.84;98838.84;5032162;28;20041;-81
2023/12/21 11:31:16;;;;;;;12.95;6.78;;;;;;;8.29;53.87;98831.03;5017670;28;20048;-81
2023/12/21 11:34:12;;;;;;;7.93;4.05;;;;;;;8.15;52.11;98832.25;5032154;28;20510;-80
2023/12/21 11:37:37;;;;;;;8.30;4.10;;;;;;;8.13;52.00;98814.97;5032380;28;20048;-81
2023/12/21 11:40:26;;;;;;;8.93;5.38;;;;;;;8.19;54.20;98804.28;4989542;28;20049;-80
2023/12/21 11:43:20;;;;;;;13.35;5.55;;;;;;;8.27;53.63;98801.34;4989864;28;20150;-81
2023/12/21 11:46:05;;;;;;;8.23;5.00;;;;;;;8.39;53.97;98798.75;5028356;28;20139;-78
2023/12/21 11:48:52;;;;;;;11.75;5.28;;;;;;;8.49;53.48;98785.78;5022915;28;20036;-80
2023/12/21 11:51:49;;;;;;;10.73;6.03;;;;;;;8.55;52.36;98770.81;5032209;28;20510;-81
2023/12/21 11:54:35;;;;;;;10.77;6.30;;;;;;;8.65;53.16;98765.78;5032808;28;20044;-82
2023/12/21 11:57:20;;;;;;;9.63;5.93;;;;;;;8.61;52.08;98764.59;5026229;28;20056;-82
2023/12/21 12:00:16;;;;;;;10.57;5.68;;;;;;;8.55;51.46;98761.03;5028700;28;20068;-82
2023/12/21 12:03:03;;;;;;;13.27;5.20;;;;;;;8.44;51.79;98759.16;5037062;28;20048;-78
2023/12/21 12:05:53;;;;;;;9.43;5.00;;;;;;;8.41;51.61;98741.09;5036878;28;20072;-78
2023/12/21 12:08:42;;;;;;;10.63;5.60;;;;;;;8.47;52.70;98732.22;5022385;28;20303;-77
2023/12/21 12:11:28;;;;;;;13.23;6.80;;;;;;;8.49;51.65;98724.03;5022392;28;20064;-82
2023/12/21 12:14:16;;;;;;;14.40;6.07;;;;;;;8.50;51.74;98715.09;5037030;28;20048;-77
2023/12/21 12:17:01;;;;;;;14.93;6.10;;;;;;;8.55;52.00;98702.78;5036634;28;20053;-80
2023/12/21 12:19:47;;;;;;;10.30;6.00;;;;;;;8.59;51.54;98703.13;5021838;28;20080;-78
2023/12/21 12:22:33;;;;;;;7.53;4.95;;;;;;;8.70;52.13;98697.00;5040503;28;20049;-77
2023/12/21 12:25:19;;;;;;;9.13;5.57;;;;;;;8.74;52.00;98692.88;5036768;28;20490;-78
2023/12/21 12:28:04;;;;;;;7.90;5.28;;;;;;;8.78;51.06;98691.38;5036682;28;20044;-81
2023/12/21 12:30:49;;;;;;;9.00;5.43;;;;;;;8.78;51.06;98685.28;5036594;28;20063;-82
2023/12/21 12:33:37;;;;;;;13.93;5.57;;;;;;;8.79;49.20;98689.53;5036442;28;20112;-82
2023/12/21 12:36:22;;;;;;;10.85;6.30;;;;;;;8.81;49.63;98687.47;5028413;28;20052;-81
2023/12/21 12:39:10;;;;;;;12.52;6.70;;;;;;;8.66;49.58;98692.41;5035893;28;20048;-79
2023/12/21 12:41:59;;;;;;;9.52;5.68;;;;;;;8.80;49.61;98678.69;5036298;28;20108;-81
2023/12/21 12:44:45;;;;;;;12.10;6.47;;;;;;;8.84;50.21;98673.75;5021713;28;20514;-80
2023/12/21 12:47:31;;;;;;;21.13;9.52;;;;;;;8.89;49.26;98668.53;5035942;28;20056;-79
2023/12/21 12:50:23;;;;;;;15.77;8.38;;;;;;;8.99;48.92;98670.59;5027918;28;20521;-79
2023/12/21 12:53:09;;;;;;;16.58;8.32;;;;;;;8.97;48.27;98647.00;5036268;28;20099;-77